Emmel Airfield Dedelow Airport EDBD

Flugplatz Daten

Name: Emmel Airfield Dedelow Airport

Ident: EDBD

Lat: 53,35638809

Long: 13,7836113

Platzhöhe: 213 ft

IataCode:

City: Prenzlau

Metar

2019/03/30 22:00
CYWG 302200Z 29008G15KT 15SM FEW049 SCT062 00/M13 A3035 RMK CF1SC3 CVCTV CLD EDBD VIRGA NE-E SLP294

Taf

Gewünschte Webcam nicht vorhanden? Dann fügen Sie eine hinzu. Sie wird dann so schnell wie möglich freigeschaltet
Url: Title: